createdAt,value
2022-08-05T00:00:34.218Z,2.08
2022-08-05T00:03:49.848Z,2.17
2022-08-05T00:06:52.143Z,2.15
2022-08-05T00:09:54.618Z,2.80
2022-08-05T00:12:57.128Z,2.42
2022-08-05T00:16:00.414Z,2.42
2022-08-05T00:19:03.155Z,2.40
2022-08-05T00:22:05.274Z,2.28
2022-08-05T00:25:12.696Z,2.67
2022-08-05T00:28:15.827Z,2.72
2022-08-05T00:31:54.264Z,2.50
2022-08-05T00:35:05.263Z,2.80
2022-08-05T00:38:09.474Z,3.22
2022-08-05T00:41:11.804Z,2.58
2022-08-05T00:44:14.577Z,2.72
2022-08-05T00:47:16.584Z,3.03
2022-08-05T00:50:21.054Z,2.80
2022-08-05T00:53:59.833Z,3.60
2022-08-05T00:56:51.445Z,3.00
2022-08-05T00:59:54.099Z,3.13
2022-08-05T01:02:59.800Z,3.55
2022-08-05T01:06:02.648Z,3.85
2022-08-05T01:09:07.602Z,3.42
2022-08-05T01:12:18.018Z,2.97
2022-08-05T01:15:36.166Z,3.55
2022-08-05T01:18:56.200Z,2.58
2022-08-05T01:22:15.368Z,3.20
2022-08-05T01:25:42.053Z,2.80
2022-08-05T01:29:05.080Z,2.63
2022-08-05T01:32:12.128Z,2.70
2022-08-05T01:35:51.558Z,2.33
2022-08-05T01:38:48.434Z,2.83
2022-08-05T01:41:53.373Z,2.70
2022-08-05T01:44:59.160Z,2.90
2022-08-05T01:48:03.840Z,2.90
2022-08-05T01:51:14.695Z,2.30
2022-08-05T01:54:19.359Z,2.40
2022-08-05T01:58:14.798Z,2.72
2022-08-05T02:00:58.869Z,2.17
2022-08-05T02:07:04.313Z,2.58
2022-08-05T02:10:11.229Z,2.00
2022-08-05T02:13:28.688Z,2.05
2022-08-05T02:16:55.547Z,2.75
2022-08-05T02:20:02.129Z,2.40
2022-08-05T02:23:10.782Z,2.60
2022-08-05T02:26:17.179Z,2.58
2022-08-05T02:29:58.182Z,2.58
2022-08-05T02:32:54.328Z,2.53
2022-08-05T02:36:00.638Z,3.20
2022-08-05T02:39:08.702Z,2.65
2022-08-05T02:42:11.629Z,3.03
2022-08-05T02:45:52.688Z,2.97
2022-08-05T02:48:54.471Z,3.00
2022-08-05T02:52:04.089Z,2.97
2022-08-05T02:55:10.922Z,3.05
2022-08-05T02:58:16.753Z,3.05
2022-08-05T03:01:25.576Z,3.05
2022-08-05T03:04:29.994Z,2.60
2022-08-05T03:08:00.191Z,2.30
2022-08-05T03:11:41.125Z,3.10
2022-08-05T03:14:16.687Z,1.80
2022-08-05T03:17:20.248Z,2.40
2022-08-05T03:23:28.038Z,2.20
2022-08-05T03:26:32.386Z,2.03
2022-08-05T03:29:45.444Z,2.08
2022-08-05T03:32:58.509Z,1.88
2022-08-05T03:36:01.717Z,2.10
2022-08-05T03:39:13.194Z,2.35
2022-08-05T03:42:22.631Z,2.27
2022-08-05T03:45:29.798Z,2.00
2022-08-05T03:48:52.464Z,1.92
2022-08-05T03:52:50.622Z,2.40
2022-08-05T03:56:01.887Z,2.53
2022-08-05T03:58:55.488Z,2.40
2022-08-05T04:02:02.888Z,2.25
2022-08-05T04:05:09.601Z,2.60
2022-08-05T04:08:29.623Z,2.08
2022-08-05T04:11:50.685Z,2.47
2022-08-05T04:14:57.636Z,2.50
2022-08-05T04:18:07.886Z,2.50
2022-08-05T04:21:12.280Z,2.60
2022-08-05T04:24:27.625Z,2.63
2022-08-05T04:27:41.616Z,2.55
2022-08-05T04:30:46.067Z,2.55
2022-08-05T04:34:18.576Z,2.20
2022-08-05T04:37:12.889Z,2.50
2022-08-05T04:40:15.149Z,2.55
2022-08-05T04:43:22.002Z,2.60
2022-08-05T04:46:28.500Z,2.45
2022-08-05T04:49:38.368Z,2.47
2022-08-05T04:52:53.399Z,2.20
2022-08-05T04:56:32.275Z,2.50
2022-08-05T04:59:24.274Z,1.95
2022-08-05T05:02:41.724Z,2.17
2022-08-05T05:06:39.653Z,2.38
2022-08-05T05:09:07.538Z,2.05
2022-08-05T05:12:09.852Z,2.25
2022-08-05T05:15:13.667Z,1.80
2022-08-05T05:18:31.333Z,1.92
2022-08-05T05:21:36.236Z,2.08
2022-08-05T05:24:57.373Z,1.92
2022-08-05T05:28:01.832Z,1.75
2022-08-05T05:31:05.785Z,1.90
2022-08-05T05:34:11.245Z,1.80
2022-08-05T05:37:15.389Z,1.77
2022-08-05T05:40:20.366Z,1.60
2022-08-05T05:43:56.616Z,2.08
2022-08-05T05:46:51.173Z,1.33
2022-08-05T05:49:56.695Z,1.33
2022-08-05T05:53:03.381Z,1.58
2022-08-05T05:56:32.936Z,1.40
2022-08-05T05:59:40.280Z,1.20
2022-08-05T06:02:43.231Z,1.00
2022-08-05T06:05:45.430Z,1.05
2022-08-05T06:08:56.515Z,1.10
2022-08-05T06:11:59.931Z,1.00
2022-08-05T06:15:08.150Z,1.00
2022-08-05T06:18:10.363Z,0.98
2022-08-05T06:21:16.793Z,1.05
2022-08-05T06:24:22.514Z,0.95
2022-08-05T06:28:11.203Z,1.05
2022-08-05T06:30:51.878Z,1.10
2022-08-05T06:34:06.754Z,1.10
2022-08-05T06:37:10.758Z,0.90
2022-08-05T06:40:18.539Z,1.23
2022-08-05T06:43:57.273Z,0.82
2022-08-05T06:46:45.981Z,1.10
2022-08-05T06:50:01.648Z,0.82
2022-08-05T06:53:19.656Z,0.82
2022-08-05T06:56:28.215Z,0.90
2022-08-05T06:59:30.417Z,0.77
2022-08-05T07:02:44.846Z,1.00
2022-08-05T07:05:47.165Z,0.80
2022-08-05T07:08:51.948Z,0.90
2022-08-05T07:12:00.351Z,0.68
2022-08-05T07:15:34.171Z,0.90
2022-08-05T07:18:47.936Z,0.60
2022-08-05T07:22:00.480Z,0.98
2022-08-05T07:25:21.890Z,0.70
2022-08-05T07:28:25.340Z,0.60
2022-08-05T07:31:41.092Z,0.85
2022-08-05T07:34:50.238Z,0.60
2022-08-05T07:38:00.221Z,0.63
2022-08-05T07:41:34.959Z,0.70
2022-08-05T07:44:27.048Z,0.60
2022-08-05T07:47:30.429Z,0.77
2022-08-05T07:50:44.698Z,0.57
2022-08-05T07:53:50.494Z,0.80
2022-08-05T07:57:13.863Z,0.60
2022-08-05T08:00:15.650Z,0.77
2022-08-05T08:03:19.255Z,0.83
2022-08-05T08:06:23.695Z,0.52
2022-08-05T08:09:30.450Z,0.47
2022-08-05T08:12:48.657Z,0.90
2022-08-05T08:16:50.137Z,0.70
2022-08-05T08:20:10.050Z,0.50
2022-08-05T08:22:36.135Z,0.32
2022-08-05T08:26:00.611Z,0.63
2022-08-05T08:29:21.597Z,0.40
2022-08-05T08:32:27.802Z,0.60
2022-08-05T08:35:35.103Z,0.63
2022-08-05T08:38:43.657Z,0.45
2022-08-05T08:41:59.727Z,0.43
2022-08-05T08:45:23.562Z,0.43
2022-08-05T08:49:02.903Z,0.40
2022-08-05T08:52:03.248Z,0.23
2022-08-05T08:55:13.265Z,0.30
2022-08-05T08:58:16.926Z,0.40
2022-08-05T09:01:19.972Z,0.43
2022-08-05T09:04:22.587Z,0.63
2022-08-05T09:07:39.810Z,0.35
2022-08-05T09:10:56.044Z,0.30
2022-08-05T09:14:09.182Z,0.40
2022-08-05T09:17:43.108Z,0.55
2022-08-05T09:20:45.959Z,0.40
2022-08-05T09:24:03.089Z,0.50
2022-08-05T09:27:09.722Z,0.40
2022-08-05T09:30:16.476Z,0.50
2022-08-05T09:33:19.583Z,0.20
2022-08-05T09:36:27.620Z,0.38
2022-08-05T09:39:41.622Z,0.35
2022-08-05T09:42:50.069Z,0.40
2022-08-05T09:46:06.153Z,0.50
2022-08-05T09:49:23.217Z,0.35
2022-08-05T09:52:47.575Z,0.38
2022-08-05T09:56:03.780Z,0.40
2022-08-05T09:59:17.265Z,0.50
2022-08-05T10:02:32.235Z,0.80
2022-08-05T10:05:36.256Z,0.50
2022-08-05T10:08:38.968Z,0.82
2022-08-05T10:11:45.851Z,0.57
2022-08-05T10:14:49.968Z,0.43
2022-08-05T10:18:07.623Z,0.55
2022-08-05T10:21:11.881Z,0.60
2022-08-05T10:24:20.655Z,0.60
2022-08-05T10:28:09.400Z,0.75
2022-08-05T10:32:54.988Z,0.50
2022-08-05T10:34:16.912Z,0.40
2022-08-05T10:37:19.383Z,0.60
2022-08-05T10:40:29.411Z,1.08
2022-08-05T10:43:53.742Z,0.52
2022-08-05T10:50:32.695Z,0.50
2022-08-05T10:53:42.674Z,0.43
2022-08-05T10:56:52.893Z,0.30
2022-08-05T11:00:20.435Z,1.10
2022-08-05T11:03:26.935Z,0.70
2022-08-05T11:06:31.404Z,0.32
2022-08-05T11:10:03.656Z,0.50
2022-08-05T11:13:57.973Z,0.47
2022-08-05T11:17:58.769Z,0.50
2022-08-05T11:20:52.332Z,0.60
2022-08-05T11:24:04.359Z,0.50
2022-08-05T11:27:51.365Z,0.95
2022-08-05T11:30:58.333Z,0.43
2022-08-05T11:34:06.386Z,0.68
2022-08-05T11:38:26.509Z,0.57
2022-08-05T11:41:14.071Z,0.90
2022-08-05T11:44:53.029Z,0.63
2022-08-05T11:47:49.922Z,0.50
2022-08-05T11:50:53.652Z,0.50
2022-08-05T11:53:56.334Z,0.40
2022-08-05T11:56:58.662Z,0.40
2022-08-05T12:00:03.980Z,0.65
2022-08-05T12:03:28.782Z,0.32
2022-08-05T12:06:35.928Z,0.50
2022-08-05T12:09:53.309Z,0.60
2022-08-05T12:13:04.180Z,1.08
2022-08-05T12:16:25.580Z,0.55
2022-08-05T12:20:25.399Z,0.70
2022-08-05T12:22:51.961Z,0.70
2022-08-05T12:25:56.909Z,0.73
2022-08-05T12:28:59.340Z,0.55
2022-08-05T12:32:07.411Z,0.57
2022-08-05T12:35:16.882Z,0.63
2022-08-05T12:38:30.191Z,0.63
2022-08-05T12:41:36.495Z,0.60
2022-08-05T12:44:47.601Z,0.40
2022-08-05T12:48:01.745Z,0.80
2022-08-05T12:51:21.689Z,0.68
2022-08-05T12:54:41.359Z,0.50
2022-08-05T12:58:38.671Z,0.65
2022-08-05T13:02:05.418Z,0.30
2022-08-05T13:04:31.220Z,0.55
2022-08-05T13:11:04.071Z,0.35
2022-08-05T13:14:24.917Z,0.30
2022-08-05T13:17:41.998Z,0.60
2022-08-05T13:20:44.851Z,0.88
2022-08-05T13:23:50.765Z,0.88
2022-08-05T13:26:54.524Z,1.25
2022-08-05T13:30:32.571Z,0.82
2022-08-05T13:34:23.040Z,0.70
2022-08-05T13:36:42.782Z,0.90
2022-08-05T13:40:15.992Z,0.70
2022-08-05T13:43:12.104Z,0.50
2022-08-05T13:46:16.523Z,0.77
2022-08-05T13:49:38.143Z,0.38
2022-08-05T13:52:49.903Z,0.73
2022-08-05T13:55:58.771Z,0.40
2022-08-05T13:59:05.965Z,0.70
2022-08-05T14:02:21.274Z,0.65
2022-08-05T14:05:29.546Z,0.60
2022-08-05T14:08:51.168Z,0.70
2022-08-05T14:12:00.374Z,0.60
2022-08-05T14:16:09.128Z,0.63
2022-08-05T14:18:30.027Z,0.50
2022-08-05T14:22:09.558Z,0.50
2022-08-05T14:24:55.031Z,0.63
2022-08-05T14:27:58.401Z,0.60
2022-08-05T14:31:01.388Z,0.65
2022-08-05T14:34:05.770Z,0.52
2022-08-05T14:37:14.352Z,0.50
2022-08-05T14:40:16.770Z,0.40
2022-08-05T14:43:20.362Z,0.50
2022-08-05T14:46:42.414Z,0.57
2022-08-05T14:53:05.612Z,0.70
2022-08-05T14:59:10.326Z,1.20
2022-08-05T15:02:24.197Z,0.50
2022-08-05T15:05:29.851Z,0.73
2022-08-05T15:08:58.482Z,0.60
2022-08-05T15:11:55.193Z,0.70
2022-08-05T15:14:58.877Z,0.68
2022-08-05T15:18:03.771Z,0.80
2022-08-05T15:21:09.883Z,0.50
2022-08-05T15:24:14.455Z,0.73
2022-08-05T15:27:18.864Z,0.60
2022-08-05T15:30:22.450Z,0.70
2022-08-05T15:34:04.127Z,0.73
2022-08-05T15:36:46.824Z,0.88
2022-08-05T15:41:00.017Z,0.60
2022-08-05T15:43:20.058Z,0.40
2022-08-05T15:46:24.953Z,0.50
2022-08-05T15:49:52.031Z,0.70
2022-08-05T15:52:52.885Z,0.60
2022-08-05T15:56:02.797Z,0.70
2022-08-05T15:59:06.624Z,0.47
2022-08-05T16:02:09.520Z,0.70
2022-08-05T16:05:16.771Z,1.10
2022-08-05T16:08:18.908Z,1.15
2022-08-05T16:11:40.109Z,1.00
2022-08-05T16:14:44.486Z,1.17
2022-08-05T16:17:58.057Z,1.00
2022-08-05T16:21:04.365Z,1.40
2022-08-05T16:24:39.496Z,1.38
2022-08-05T16:27:32.126Z,0.95
2022-08-05T16:30:53.042Z,1.40
2022-08-05T16:33:55.781Z,0.88
2022-08-05T16:36:58.116Z,1.00
2022-08-05T16:40:05.138Z,1.20
2022-08-05T16:43:09.494Z,0.60
2022-08-05T16:46:23.737Z,0.93
2022-08-05T16:49:27.148Z,1.05
2022-08-05T16:52:33.632Z,0.93
2022-08-05T16:55:47.155Z,1.27
2022-08-05T16:58:49.797Z,1.08
2022-08-05T17:01:54.240Z,0.80
2022-08-05T17:04:58.538Z,1.33
2022-08-05T17:08:00.770Z,1.10
2022-08-05T17:11:03.962Z,1.67
2022-08-05T17:14:06.713Z,0.65
2022-08-05T17:17:09.396Z,1.13
2022-08-05T17:20:17.283Z,0.80
2022-08-05T17:24:03.134Z,0.90
2022-08-05T17:26:42.010Z,0.90
2022-08-05T17:29:44.633Z,1.08
2022-08-05T17:32:49.098Z,1.00
2022-08-05T17:36:10.037Z,1.00
2022-08-05T17:39:24.224Z,1.10
2022-08-05T17:42:36.313Z,1.08
2022-08-05T17:45:44.610Z,0.60
2022-08-05T17:48:48.037Z,1.13
2022-08-05T17:51:51.533Z,1.05
2022-08-05T17:54:53.791Z,1.08
2022-08-05T17:57:57.547Z,0.70
2022-08-05T18:00:59.556Z,0.70
2022-08-05T18:04:04.443Z,0.80
2022-08-05T18:07:07.854Z,1.10
2022-08-05T18:10:21.026Z,0.80
2022-08-05T18:13:23.502Z,1.08
2022-08-05T18:19:30.284Z,0.95
2022-08-05T18:22:46.141Z,1.20
2022-08-05T18:25:57.743Z,1.20
2022-08-05T18:29:02.419Z,1.00
2022-08-05T18:32:05.328Z,0.77
2022-08-05T18:35:07.759Z,1.35
2022-08-05T18:38:16.435Z,0.80
2022-08-05T18:41:53.342Z,0.98
2022-08-05T18:44:48.922Z,0.70
2022-08-05T18:47:56.788Z,1.05
2022-08-05T18:52:06.598Z,1.00
2022-08-05T18:54:41.358Z,1.08
2022-08-05T18:57:52.767Z,0.90
2022-08-05T19:00:56.452Z,0.90
2022-08-05T19:03:58.807Z,0.90
2022-08-05T19:07:01.853Z,1.15
2022-08-05T19:10:09.419Z,0.95
2022-08-05T19:13:15.706Z,1.02
2022-08-05T19:16:25.435Z,0.80
2022-08-05T19:19:32.409Z,0.80
2022-08-05T19:22:36.353Z,1.10
2022-08-05T19:25:43.730Z,1.40
2022-08-05T19:28:46.475Z,0.70
2022-08-05T19:31:50.931Z,1.10
2022-08-05T19:38:05.937Z,0.90
2022-08-05T19:41:09.779Z,1.20
2022-08-05T19:44:13.507Z,0.80
2022-08-05T19:47:16.769Z,1.08
2022-08-05T19:50:20.175Z,0.80
2022-08-05T19:54:05.363Z,0.80
2022-08-05T19:56:44.994Z,0.60
2022-08-05T19:59:56.487Z,0.80
2022-08-05T20:03:13.978Z,1.50
2022-08-05T20:06:29.040Z,1.20
2022-08-05T20:09:54.351Z,0.85
2022-08-05T20:12:55.306Z,0.77
2022-08-05T20:15:57.909Z,0.73
2022-08-05T20:18:59.996Z,1.55
2022-08-05T20:22:03.893Z,0.90
2022-08-05T20:25:07.294Z,0.70
2022-08-05T20:28:13.677Z,1.05
2022-08-05T20:31:17.607Z,0.80
2022-08-05T20:34:24.288Z,1.40
2022-08-05T20:38:06.054Z,0.90
2022-08-05T20:40:48.495Z,1.05
2022-08-05T20:43:58.728Z,1.00
2022-08-05T20:47:07.392Z,1.00
2022-08-05T20:50:11.355Z,1.15
2022-08-05T20:53:16.210Z,1.25
2022-08-05T20:56:42.121Z,1.40
2022-08-05T20:59:46.104Z,1.10
2022-08-05T21:03:08.128Z,1.05
2022-08-05T21:06:27.772Z,0.90
2022-08-05T21:09:30.814Z,1.13
2022-08-05T21:12:36.895Z,1.00
2022-08-05T21:15:41.209Z,1.38
2022-08-05T21:18:48.743Z,1.13
2022-08-05T21:21:51.311Z,1.80
2022-08-05T21:24:54.875Z,0.85
2022-08-05T21:27:57.043Z,0.90
2022-08-05T21:30:59.886Z,1.13
2022-08-05T21:34:02.472Z,1.58
2022-08-05T21:37:05.358Z,1.30
2022-08-05T21:40:13.787Z,0.98
2022-08-05T21:43:24.750Z,0.90
2022-08-05T21:46:27.047Z,1.10
2022-08-05T21:49:59.272Z,0.80
2022-08-05T21:52:58.608Z,1.58
2022-08-05T21:56:16.499Z,1.20
2022-08-05T21:59:22.557Z,1.42
2022-08-05T22:02:27.675Z,1.15
2022-08-05T22:05:29.827Z,1.15
2022-08-05T22:08:52.603Z,1.10
2022-08-05T22:11:55.031Z,1.80
2022-08-05T22:14:59.227Z,1.38
2022-08-05T22:18:02.138Z,1.50
2022-08-05T22:21:14.139Z,1.20
2022-08-05T22:24:52.384Z,1.45
2022-08-05T22:28:08.641Z,1.50
2022-08-05T22:31:13.712Z,1.65
2022-08-05T22:34:20.336Z,1.23
2022-08-05T22:37:58.159Z,1.63
2022-08-05T22:40:54.867Z,1.27
2022-08-05T22:43:59.280Z,1.20
2022-08-05T22:47:05.716Z,0.98
2022-08-05T22:50:18.121Z,1.33
2022-08-05T22:53:24.592Z,1.50
2022-08-05T22:56:39.961Z,1.15
2022-08-05T22:59:51.802Z,1.35
2022-08-05T23:02:56.578Z,1.27
2022-08-05T23:06:00.455Z,1.10
2022-08-05T23:09:27.003Z,1.40
2022-08-05T23:12:25.862Z,1.38
2022-08-05T23:15:35.332Z,1.30
2022-08-05T23:18:38.608Z,1.20
2022-08-05T23:21:42.815Z,1.52
2022-08-05T23:24:51.271Z,0.95
2022-08-05T23:27:57.668Z,1.20
2022-08-05T23:31:16.883Z,1.17
2022-08-05T23:34:24.462Z,1.38
2022-08-05T23:37:27.434Z,1.38
2022-08-05T23:40:38.798Z,1.55
2022-08-05T23:44:05.832Z,1.27
2022-08-05T23:47:15.101Z,1.52
2022-08-05T23:50:20.296Z,1.20
2022-08-05T23:53:23.292Z,1.58
2022-08-05T23:56:30.569Z,1.48
